Time;durP1;ratioP1;P1;durP2;ratioP2;P2;SDS_P1;SDS_P2;PMS_P1;PMS_P2;Temp;Humidity;BMP_temperature;BMP_pressure;BME280_temperature;BME280_humidity;BME280_pressure;Samples;Min_cycle;Max_cycle;Signal;HPM_P1;HPM_P2
2023/08/01 03:01:06;;;;;;;1.83;1.20;;;23.40;54.10;;;;;;5602910;23;45975;-86
2023/08/01 03:03:32;;;;;;;1.35;1.10;;;23.30;54.10;;;;;;4876014;28;46244;-84
2023/08/01 03:05:57;;;;;;;1.20;1.08;;;23.40;54.10;;;;;;4860865;28;46255;-84
2023/08/01 03:08:23;;;;;;;1.30;1.20;;;23.40;54.10;;;;;;4859849;28;47168;-83
2023/08/01 03:10:49;;;;;;;1.85;1.10;;;23.40;54.10;;;;;;4873509;28;46467;-83
2023/08/01 03:13:14;;;;;;;1.58;1.05;;;23.40;54.10;;;;;;4886103;28;44721;-84
2023/08/01 03:15:43;;;;;;;1.88;1.00;;;23.40;54.10;;;;;;4885343;28;45536;-89
2023/08/01 03:18:08;;;;;;;2.05;1.52;;;23.40;54.10;;;;;;4880604;28;47062;-82
2023/08/01 03:20:34;;;;;;;1.38;1.27;;;23.40;54.10;;;;;;4877908;28;45143;-85
2023/08/01 03:22:59;;;;;;;1.42;1.30;;;23.40;54.10;;;;;;4891284;28;45073;-84
2023/08/01 03:25:25;;;;;;;1.30;1.17;;;23.40;54.10;;;;;;4875419;28;45113;-84
2023/08/01 03:27:50;;;;;;;1.42;1.10;;;23.40;54.10;;;;;;4881279;28;48005;-84
2023/08/01 03:30:16;;;;;;;1.73;1.20;;;23.40;54.20;;;;;;4876234;28;45378;-84
2023/08/01 03:32:42;;;;;;;1.67;1.10;;;23.40;54.10;;;;;;4865464;28;45233;-81
2023/08/01 03:35:07;;;;;;;2.03;1.30;;;23.40;54.10;;;;;;4881750;28;44984;-84
2023/08/01 03:37:33;;;;;;;1.67;1.30;;;23.40;54.10;;;;;;4887948;28;45185;-85
2023/08/01 03:39:58;;;;;;;2.58;1.27;;;23.40;54.10;;;;;;4889546;28;45575;-83
2023/08/01 03:42:24;;;;;;;1.42;1.17;;;23.40;54.10;;;;;;4871933;28;45661;-87
2023/08/01 03:44:49;;;;;;;1.25;1.15;;;23.40;54.10;;;;;;4895213;28;45612;-81
2023/08/01 03:47:15;;;;;;;1.55;1.20;;;23.40;54.10;;;;;;4865442;28;46389;-83
2023/08/01 03:49:40;;;;;;;1.65;1.33;;;23.40;54.10;;;;;;4888592;28;45898;-83
2023/08/01 03:52:06;;;;;;;1.92;1.10;;;23.40;54.10;;;;;;4899827;28;45381;-84
2023/08/01 03:54:32;;;;;;;2.63;1.50;;;23.40;54.70;;;;;;4870536;28;45672;-84
2023/08/01 03:56:57;;;;;;;1.73;1.30;;;23.40;54.20;;;;;;4866258;28;46530;-84
2023/08/01 03:59:23;;;;;;;1.60;1.33;;;23.40;54.20;;;;;;4883269;28;45029;-86
2023/08/01 04:01:50;;;;;;;2.33;1.20;;;23.40;54.20;;;;;;4871932;28;46793;-84
2023/08/01 04:04:16;;;;;;;2.42;1.33;;;23.40;54.20;;;;;;4883454;28;46315;-82
2023/08/01 04:06:42;;;;;;;1.60;1.48;;;23.40;54.20;;;;;;4878852;28;45482;-84
2023/08/01 04:09:07;;;;;;;2.38;1.50;;;23.40;54.20;;;;;;4878989;29;45404;-83
2023/08/01 04:11:33;;;;;;;2.22;1.30;;;23.40;54.20;;;;;;4881696;28;45100;-82
2023/08/01 04:13:58;;;;;;;1.30;1.20;;;23.40;54.20;;;;;;4864232;28;45497;-83
2023/08/01 04:16:24;;;;;;;1.80;1.45;;;23.40;54.20;;;;;;4875625;29;45465;-83
2023/08/01 04:18:49;;;;;;;1.58;1.23;;;23.30;54.20;;;;;;4880845;28;45454;-83
2023/08/01 04:21:15;;;;;;;1.40;1.20;;;23.40;54.20;;;;;;4879386;29;45477;-84
2023/08/01 04:23:41;;;;;;;2.15;1.38;;;23.40;54.30;;;;;;4848310;28;45484;-84
2023/08/01 04:26:09;;;;;;;2.33;1.70;;;23.40;54.20;;;;;;4881676;29;46586;-84
2023/08/01 04:28:35;;;;;;;2.88;1.42;;;23.40;54.20;;;;;;4881628;28;45362;-82
2023/08/01 04:31:00;;;;;;;1.70;1.23;;;23.40;54.20;;;;;;4876545;28;44919;-82
2023/08/01 04:33:26;;;;;;;2.50;1.80;;;23.40;54.30;;;;;;4882057;29;45530;-84
2023/08/01 04:35:51;;;;;;;1.77;1.20;;;23.40;54.20;;;;;;4864019;29;45516;-85
2023/08/01 04:38:17;;;;;;;2.53;1.63;;;23.40;54.50;;;;;;4866993;29;45293;-83
2023/08/01 04:40:43;;;;;;;1.92;1.40;;;23.40;54.30;;;;;;4861879;28;45127;-82
2023/08/01 04:43:09;;;;;;;1.73;1.25;;;23.40;54.30;;;;;;4870936;29;45481;-84
2023/08/01 04:45:35;;;;;;;2.60;1.20;;;23.40;54.30;;;;;;4857319;29;46898;-83
2023/08/01 04:48:00;;;;;;;2.35;1.58;;;23.40;54.30;;;;;;4862102;29;45291;-82
2023/08/01 04:50:26;;;;;;;1.95;1.35;;;23.40;54.30;;;;;;4815010;29;45343;-84
2023/08/01 04:52:52;;;;;;;2.50;1.50;;;23.40;54.30;;;;;;4876552;28;45633;-84
2023/08/01 04:55:17;;;;;;;2.63;1.60;;;23.40;54.30;;;;;;4875916;29;45450;-84
2023/08/01 04:57:43;;;;;;;1.60;1.30;;;23.40;54.40;;;;;;4880891;29;45389;-83
2023/08/01 05:00:15;;;;;;;2.67;1.42;;;23.30;54.30;;;;;;4877466;28;45053;-85
2023/08/01 05:02:40;;;;;;;2.35;1.60;;;23.40;54.40;;;;;;4857193;29;46538;-84
2023/08/01 05:05:07;;;;;;;2.05;1.40;;;23.30;54.30;;;;;;4847872;29;47168;-87
2023/08/01 05:07:32;;;;;;;3.05;1.52;;;23.30;54.30;;;;;;4878616;29;45227;-83
2023/08/01 05:09:58;;;;;;;1.95;1.40;;;23.30;54.30;;;;;;4859285;29;45305;-83
2023/08/01 05:12:23;;;;;;;3.47;1.70;;;23.30;54.40;;;;;;4877165;29;45254;-83
2023/08/01 05:14:49;;;;;;;2.22;1.63;;;23.30;54.40;;;;;;4852519;29;47260;-81
2023/08/01 05:17:15;;;;;;;2.60;1.40;;;23.30;54.40;;;;;;4838739;29;44952;-84
2023/08/01 05:19:40;;;;;;;2.15;1.50;;;23.30;54.40;;;;;;4878679;29;45642;-87
2023/08/01 05:22:06;;;;;;;1.70;1.38;;;23.30;54.40;;;;;;4865753;29;45426;-83
2023/08/01 05:24:31;;;;;;;2.00;1.35;;;23.40;54.40;;;;;;4883467;29;46465;-85
2023/08/01 05:26:57;;;;;;;2.15;1.60;;;23.40;54.40;;;;;;4862524;29;45337;-84
2023/08/01 05:29:23;;;;;;;2.38;1.50;;;23.30;54.40;;;;;;4864149;29;45165;-82
2023/08/01 05:31:48;;;;;;;2.47;1.52;;;23.30;54.40;;;;;;4858286;29;45062;-83
2023/08/01 05:34:14;;;;;;;2.10;1.70;;;23.30;54.40;;;;;;4863851;29;45506;-83
2023/08/01 05:36:39;;;;;;;2.13;1.23;;;23.30;54.40;;;;;;4855966;29;45137;-84
2023/08/01 05:39:05;;;;;;;2.47;1.80;;;23.30;54.40;;;;;;4847961;29;45427;-83
2023/08/01 05:41:30;;;;;;;1.52;1.35;;;23.40;54.50;;;;;;4858413;29;45291;-84
2023/08/01 05:43:57;;;;;;;2.08;1.73;;;23.30;54.50;;;;;;4876834;29;45818;-82
2023/08/01 05:46:23;;;;;;;1.30;1.20;;;23.30;54.50;;;;;;4858632;29;45776;-85
2023/08/01 05:48:48;;;;;;;1.70;1.60;;;23.30;54.50;;;;;;4829565;29;45524;-83
2023/08/01 05:51:14;;;;;;;1.77;1.55;;;23.30;54.50;;;;;;4846743;29;45596;-82
2023/08/01 05:53:39;;;;;;;1.70;1.48;;;23.30;54.50;;;;;;4851180;29;47523;-82
2023/08/01 05:56:05;;;;;;;2.42;1.50;;;23.30;54.50;;;;;;4875834;29;45705;-83
2023/08/01 05:58:31;;;;;;;1.80;1.30;;;23.40;54.50;;;;;;4861137;29;45294;-84
2023/08/01 06:00:56;;;;;;;3.08;1.50;;;23.30;54.50;;;;;;4843502;28;46277;-84
2023/08/01 06:03:22;;;;;;;2.28;1.70;;;23.30;54.50;;;;;;4873478;29;45403;-82
2023/08/01 06:05:48;;;;;;;3.28;1.60;;;23.40;54.50;;;;;;4863544;28;44735;-82
2023/08/01 06:08:15;;;;;;;2.63;1.83;;;23.30;54.50;;;;;;4877902;29;45384;-83
2023/08/01 06:10:41;;;;;;;1.63;1.33;;;23.30;54.50;;;;;;4879273;28;44803;-83
2023/08/01 06:13:06;;;;;;;2.45;1.73;;;23.30;54.50;;;;;;4879917;28;46365;-82
2023/08/01 06:15:32;;;;;;;2.17;1.80;;;23.30;54.50;;;;;;4861153;29;45351;-84
2023/08/01 06:17:57;;;;;;;2.42;1.48;;;23.30;54.60;;;;;;4865822;28;45348;-82
2023/08/01 06:20:23;;;;;;;1.85;1.50;;;23.30;54.60;;;;;;4894355;28;45641;-81
2023/08/01 06:22:49;;;;;;;2.20;1.77;;;23.30;54.60;;;;;;4879328;28;47157;-83
2023/08/01 06:25:14;;;;;;;3.60;1.85;;;23.30;54.60;;;;;;4875167;29;45097;-82
2023/08/01 06:27:40;;;;;;;3.47;1.50;;;23.30;54.60;;;;;;4865133;29;46077;-82
2023/08/01 06:30:09;;;;;;;1.48;1.23;;;23.30;54.60;;;;;;4876936;28;45781;-83
2023/08/01 06:32:35;;;;;;;2.25;1.70;;;23.30;54.60;;;;;;4877774;28;46291;-83
2023/08/01 06:35:01;;;;;;;2.25;1.50;;;23.30;54.60;;;;;;4862456;28;45530;-82
2023/08/01 06:37:26;;;;;;;2.03;1.70;;;23.30;54.60;;;;;;4891623;28;44749;-83
2023/08/01 06:39:52;;;;;;;3.10;1.60;;;23.30;54.60;;;;;;4875952;28;45191;-81
2023/08/01 06:42:17;;;;;;;2.65;1.92;;;23.30;54.60;;;;;;4873069;28;46163;-82
2023/08/01 06:44:43;;;;;;;2.20;1.63;;;23.30;54.60;;;;;;4878795;28;45843;-85
2023/08/01 06:47:08;;;;;;;1.38;1.27;;;23.30;54.70;;;;;;4873228;28;44863;-83
2023/08/01 06:49:34;;;;;;;2.85;1.75;;;23.30;54.90;;;;;;4867015;29;45215;-83
2023/08/01 06:51:59;;;;;;;1.65;1.35;;;23.30;54.60;;;;;;4874286;28;45411;-83
2023/08/01 06:54:25;;;;;;;2.25;1.77;;;23.30;54.70;;;;;;4878736;29;44932;-82
2023/08/01 06:56:50;;;;;;;1.95;1.65;;;23.30;54.60;;;;;;4874323;28;45426;-83
2023/08/01 06:59:16;;;;;;;2.22;1.60;;;23.30;54.60;;;;;;4875781;29;45223;-81
2023/08/01 07:01:43;;;;;;;1.80;1.50;;;23.30;54.60;;;;;;4869562;29;47531;-82
2023/08/01 07:04:10;;;;;;;1.52;1.42;;;23.30;54.60;;;;;;4900956;28;45431;-82
2023/08/01 07:06:35;;;;;;;2.33;1.48;;;23.30;54.60;;;;;;4892660;28;45654;-84
2023/08/01 07:09:01;;;;;;;1.80;1.30;;;23.30;54.70;;;;;;4881647;28;45960;-82
2023/08/01 07:11:26;;;;;;;2.10;1.60;;;23.30;54.60;;;;;;4878273;29;46323;-82
2023/08/01 07:13:52;;;;;;;3.33;2.08;;;23.30;54.70;;;;;;4881736;28;45479;-82
2023/08/01 07:16:17;;;;;;;2.35;1.52;;;23.30;54.70;;;;;;4874003;29;44894;-84
2023/08/01 07:18:43;;;;;;;1.60;1.30;;;23.30;54.70;;;;;;4884137;28;45419;-83
2023/08/01 07:21:08;;;;;;;2.40;1.52;;;23.30;54.70;;;;;;4880711;28;47447;-82
2023/08/01 07:23:35;;;;;;;2.72;1.80;;;23.30;54.70;;;;;;4891906;28;45170;-82
2023/08/01 07:26:00;;;;;;;1.58;1.48;;;23.30;54.70;;;;;;4880378;28;45028;-83
2023/08/01 07:28:26;;;;;;;2.47;1.70;;;23.30;54.70;;;;;;4901845;28;44740;-83
2023/08/01 07:31:01;;;;;;;2.25;1.58;;;23.30;54.70;;;;;;4870821;28;45492;-82
2023/08/01 07:33:26;;;;;;;2.85;1.85;;;23.30;54.80;;;;;;4881125;29;45349;-83
2023/08/01 07:35:52;;;;;;;1.98;1.60;;;23.30;54.70;;;;;;4877565;29;45498;-85
2023/08/01 07:38:18;;;;;;;2.25;1.58;;;23.30;54.70;;;;;;4894454;28;45628;-82
2023/08/01 07:40:43;;;;;;;1.83;1.50;;;23.30;54.80;;;;;;4891753;28;46241;-82
2023/08/01 07:43:09;;;;;;;2.15;1.58;;;23.30;54.70;;;;;;4896075;28;45472;-83
2023/08/01 07:45:35;;;;;;;2.10;1.55;;;23.30;54.70;;;;;;4880440;28;44710;-82
2023/08/01 07:48:00;;;;;;;1.70;1.35;;;23.30;54.70;;;;;;4878636;28;45389;-82
2023/08/01 07:50:26;;;;;;;1.90;1.38;;;23.30;54.80;;;;;;4874923;29;46718;-84
2023/08/01 07:52:52;;;;;;;1.50;1.33;;;23.30;54.70;;;;;;4876766;28;45551;-82
2023/08/01 07:55:18;;;;;;;1.88;1.45;;;23.30;54.80;;;;;;4882268;29;45604;-82
2023/08/01 07:57:44;;;;;;;1.27;1.17;;;23.30;54.80;;;;;;4852782;29;44836;-83
2023/08/01 08:00:10;;;;;;;2.55;1.60;;;23.30;54.70;;;;;;4878728;28;45478;-85
2023/08/01 08:02:36;;;;;;;1.95;1.60;;;23.30;54.80;;;;;;4862293;28;45566;-83
2023/08/01 08:05:05;;;;;;;1.65;1.33;;;23.30;54.80;;;;;;4848630;28;45560;-84
2023/08/01 08:07:31;;;;;;;2.67;1.70;;;23.30;54.80;;;;;;4878024;29;45782;-83
2023/08/01 08:09:57;;;;;;;2.70;1.80;;;23.30;54.80;;;;;;4896103;28;45542;-82
2023/08/01 08:12:22;;;;;;;1.77;1.40;;;23.30;54.80;;;;;;4877611;29;44708;-84
2023/08/01 08:14:49;;;;;;;1.95;1.33;;;23.30;54.80;;;;;;4867503;28;45575;-83
2023/08/01 08:17:15;;;;;;;2.25;1.58;;;23.30;54.80;;;;;;4862173;28;45594;-82
2023/08/01 08:19:40;;;;;;;1.90;1.45;;;23.30;54.80;;;;;;4885088;28;47117;-85
2023/08/01 08:22:06;;;;;;;1.70;1.55;;;23.30;54.80;;;;;;4877710;28;45442;-84
2023/08/01 08:24:32;;;;;;;1.23;1.08;;;23.30;55.40;;;;;;4852615;28;45460;-84
2023/08/01 08:26:57;;;;;;;2.78;1.80;;;23.30;54.80;;;;;;4892332;28;44846;-82
2023/08/01 08:29:23;;;;;;;1.58;1.40;;;23.30;54.80;;;;;;4884387;29;46969;-84
2023/08/01 08:31:48;;;;;;;1.88;1.50;;;23.30;54.80;;;;;;4875953;29;45970;-83
2023/08/01 08:34:14;;;;;;;3.90;1.70;;;23.30;54.80;;;;;;4865950;28;45539;-82
2023/08/01 08:36:39;;;;;;;2.28;1.67;;;23.30;54.80;;;;;;4878622;29;45204;-83
2023/08/01 08:39:06;;;;;;;2.22;1.50;;;23.30;54.80;;;;;;4865298;28;47020;-82
2023/08/01 08:41:52;;;;;;;2.55;1.80;;;23.30;54.90;;;;;;4879499;28;45575;-82
2023/08/01 08:44:21;;;;;;;1.73;1.25;;;23.30;55.00;;;;;;4887041;29;45481;-82
2023/08/01 08:46:53;;;;;;;2.95;1.50;;;23.30;54.90;;;;;;4865354;28;45206;-85
2023/08/01 08:49:20;;;;;;;2.30;1.50;;;23.30;54.90;;;;;;4855368;28;47200;-82
2023/08/01 08:51:46;;;;;;;2.22;1.65;;;23.30;54.90;;;;;;4862102;29;45228;-84
2023/08/01 08:54:11;;;;;;;2.05;1.50;;;23.30;54.90;;;;;;4871163;28;44948;-83
2023/08/01 08:56:38;;;;;;;1.63;1.30;;;23.30;55.00;;;;;;4867343;28;45199;-83
2023/08/01 08:59:03;;;;;;;2.38;1.50;;;23.30;54.90;;;;;;4871513;28;45370;-82
2023/08/01 09:01:31;;;;;;;2.25;1.52;;;23.30;55.00;;;;;;4876822;28;45042;-82
2023/08/01 09:03:57;;;;;;;2.10;1.70;;;23.30;55.00;;;;;;4882030;28;45430;-82
2023/08/01 09:06:31;;;;;;;1.92;1.35;;;23.30;55.00;;;;;;4877027;29;45601;-81
2023/08/01 09:09:01;;;;;;;2.08;1.52;;;23.30;55.10;;;;;;4871250;28;47325;-82
2023/08/01 09:11:27;;;;;;;2.30;1.50;;;23.30;55.10;;;;;;4887354;28;45501;-82
2023/08/01 09:13:53;;;;;;;2.00;1.30;;;23.30;55.10;;;;;;4866053;29;44909;-81
2023/08/01 09:16:19;;;;;;;1.52;1.33;;;23.30;55.10;;;;;;4877378;28;45214;-82
2023/08/01 09:18:51;;;;;;;3.00;1.50;;;23.30;55.10;;;;;;4848746;28;48044;-81
2023/08/01 09:21:23;;;;;;;2.15;1.60;;;23.30;55.10;;;;;;4861701;28;45309;-85
2023/08/01 09:23:48;;;;;;;2.50;1.40;;;23.30;55.20;;;;;;4861504;29;45303;-84
2023/08/01 09:26:18;;;;;;;1.80;1.33;;;23.30;55.10;;;;;;4876079;28;45561;-82
2023/08/01 09:28:44;;;;;;;1.83;1.50;;;23.30;55.20;;;;;;4898752;28;45367;-81
2023/08/01 09:31:10;;;;;;;1.90;1.50;;;23.30;55.10;;;;;;4874829;28;45215;-84
2023/08/01 09:33:40;;;;;;;1.92;1.60;;;23.30;55.10;;;;;;4865383;29;45323;-85
2023/08/01 09:36:06;;;;;;;2.53;1.60;;;23.30;55.20;;;;;;4876648;28;45704;-83
2023/08/01 09:38:37;;;;;;;1.90;1.40;;;23.30;55.20;;;;;;4881224;28;45497;-83
2023/08/01 09:41:03;;;;;;;1.83;1.40;;;23.30;55.20;;;;;;4875438;28;45328;-83
2023/08/01 09:43:36;;;;;;;2.75;1.67;;;23.30;55.20;;;;;;4849092;29;44930;-83
2023/08/01 09:46:02;;;;;;;2.50;1.80;;;23.30;55.30;;;;;;4869526;28;45822;-84
2023/08/01 09:48:28;;;;;;;1.83;1.45;;;23.30;55.80;;;;;;4866637;29;48386;-81
2023/08/01 09:51:24;;;;;;;2.17;1.58;;;23.30;55.30;;;;;;4849765;28;45590;-82
2023/08/01 09:53:55;;;;;;;2.13;1.83;;;23.30;55.40;;;;;;4858609;29;45179;-82
2023/08/01 09:56:23;;;;;;;2.28;1.80;;;23.30;55.30;;;;;;4862355;29;45030;-83
2023/08/01 09:58:49;;;;;;;2.25;1.58;;;23.30;55.30;;;;;;4866567;28;46843;-81
2023/08/01 10:01:15;;;;;;;4.38;1.63;;;23.30;55.30;;;;;;4873134;28;45282;-82
2023/08/01 10:03:48;;;;;;;2.20;1.95;;;23.30;55.30;;;;;;4866623;29;45159;-83
2023/08/01 10:06:19;;;;;;;3.28;1.83;;;23.30;55.30;;;;;;4875445;28;44722;-82
2023/08/01 10:08:45;;;;;;;1.98;1.67;;;23.30;55.30;;;;;;4867468;28;47406;-81
2023/08/01 10:11:12;;;;;;;2.22;1.27;;;23.30;55.30;;;;;;4877306;28;45319;-82
2023/08/01 10:13:38;;;;;;;2.20;1.80;;;23.30;55.30;;;;;;4871794;29;45247;-83
2023/08/01 10:16:04;;;;;;;1.92;1.65;;;23.30;55.30;;;;;;4874775;28;45414;-81
2023/08/01 10:18:30;;;;;;;2.72;1.88;;;23.20;55.30;;;;;;4851284;29;47205;-81
2023/08/01 10:20:55;;;;;;;2.22;1.58;;;23.20;55.30;;;;;;4858443;29;44734;-83
2023/08/01 10:23:21;;;;;;;2.15;1.85;;;23.30;55.40;;;;;;4877467;29;44997;-83
2023/08/01 10:25:46;;;;;;;2.13;1.70;;;23.30;55.40;;;;;;4877218;29;45301;-85
2023/08/01 10:28:12;;;;;;;2.40;1.70;;;23.20;55.30;;;;;;4895237;28;46031;-83
2023/08/01 10:30:37;;;;;;;3.63;1.67;;;23.30;55.50;;;;;;4890568;28;45214;-81
2023/08/01 10:33:03;;;;;;;2.78;1.80;;;23.30;55.50;;;;;;4876225;28;45218;-83
2023/08/01 10:35:38;;;;;;;2.45;1.83;;;23.20;55.40;;;;;;4883388;29;45449;-80
2023/08/01 10:38:10;;;;;;;3.17;1.70;;;23.20;55.50;;;;;;4890343;28;45683;-83
2023/08/01 10:40:41;;;;;;;2.42;1.90;;;23.20;55.40;;;;;;4877090;28;45271;-82
2023/08/01 10:43:18;;;;;;;2.42;1.80;;;23.20;55.50;;;;;;4872184;28;45580;-82
2023/08/01 10:45:44;;;;;;;3.60;1.63;;;23.20;55.50;;;;;;4872940;29;45444;-82
2023/08/01 10:48:10;;;;;;;3.38;1.98;;;23.20;55.50;;;;;;4875800;28;47194;-81
2023/08/01 10:50:36;;;;;;;2.75;1.70;;;23.30;56.10;;;;;;4876543;28;46413;-82
2023/08/01 10:53:03;;;;;;;2.25;1.73;;;23.20;55.50;;;;;;4879533;28;45753;-85
2023/08/01 10:55:47;;;;;;;3.08;2.03;;;23.20;55.50;;;;;;4875805;29;45501;-86
2023/08/01 10:58:12;;;;;;;2.42;1.80;;;23.30;55.70;;;;;;4876837;28;45864;-81
2023/08/01 11:00:38;;;;;;;2.15;1.60;;;23.30;55.60;;;;;;4867601;28;45217;-82
2023/08/01 11:03:04;;;;;;;2.47;1.90;;;23.20;55.50;;;;;;4883167;28;46154;-82
2023/08/01 11:05:29;;;;;;;2.75;1.85;;;23.20;55.60;;;;;;4901729;28;45600;-81
2023/08/01 11:07:56;;;;;;;4.38;1.83;;;23.30;55.60;;;;;;4879963;28;45137;-85
2023/08/01 11:10:22;;;;;;;2.03;1.80;;;23.20;55.60;;;;;;4861913;28;45319;-82
2023/08/01 11:12:47;;;;;;;2.05;1.70;;;23.20;55.60;;;;;;4867468;28;45372;-81
2023/08/01 11:15:14;;;;;;;2.72;1.70;;;23.20;55.60;;;;;;4868481;28;44769;-85
2023/08/01 11:17:40;;;;;;;2.60;1.60;;;23.20;55.60;;;;;;4895448;28;46201;-83
2023/08/01 11:20:10;;;;;;;2.08;1.55;;;23.20;55.60;;;;;;4894802;28;45027;-84
2023/08/01 11:22:36;;;;;;;2.13;1.50;;;23.30;55.70;;;;;;4897024;28;45715;-87
2023/08/01 11:25:02;;;;;;;1.98;1.70;;;23.20;55.60;;;;;;4879616;28;44907;-81
2023/08/01 11:27:28;;;;;;;2.40;1.90;;;23.20;55.60;;;;;;4875361;28;46936;-82
2023/08/01 11:29:54;;;;;;;1.90;1.60;;;23.20;55.60;;;;;;4884003;28;44825;-82
2023/08/01 11:32:23;;;;;;;2.50;1.80;;;23.20;55.60;;;;;;4874952;28;45007;-82
2023/08/01 11:34:48;;;;;;;2.72;1.92;;;23.30;55.70;;;;;;4883354;28;45322;-82
2023/08/01 11:37:14;;;;;;;2.58;1.73;;;23.20;55.60;;;;;;4869784;28;47293;-81
2023/08/01 11:39:40;;;;;;;2.10;1.65;;;23.20;55.60;;;;;;4882873;28;46421;-82
2023/08/01 11:42:13;;;;;;;2.63;1.63;;;23.20;55.70;;;;;;4877898;28;45409;-87
2023/08/01 11:44:38;;;;;;;;;;;23.20;55.70;;;;;;4904637;28;44823;-82
2023/08/01 11:47:11;;;;;;;2.63;1.88;;;23.20;56.00;;;;;;4894258;28;46662;-84
2023/08/01 11:49:36;;;;;;;1.77;1.35;;;23.20;55.80;;;;;;4886405;28;45338;-84
2023/08/01 11:52:02;;;;;;;2.35;1.50;;;23.20;55.80;;;;;;4860598;28;45220;-82
2023/08/01 11:54:28;;;;;;;2.70;1.48;;;23.20;55.70;;;;;;4900998;28;45279;-83
2023/08/01 11:57:00;;;;;;;2.08;1.50;;;23.20;55.80;;;;;;4866083;28;46988;-82
2023/08/01 11:59:25;;;;;;;2.10;1.45;;;23.20;55.80;;;;;;4896177;28;45489;-83
2023/08/01 12:01:51;;;;;;;3.08;1.60;;;23.20;55.70;;;;;;4856882;28;44845;-83
2023/08/01 12:04:29;;;;;;;2.13;1.55;;;23.30;55.80;;;;;;4887308;28;46695;-82
2023/08/01 12:06:55;;;;;;;2.13;1.45;;;23.20;55.80;;;;;;4882289;28;45274;-82
2023/08/01 12:09:21;;;;;;;1.58;1.40;;;23.20;55.70;;;;;;4885335;28;45255;-83
2023/08/01 12:11:46;;;;;;;1.58;1.35;;;23.20;55.70;;;;;;4877122;28;46071;-82
2023/08/01 12:14:13;;;;;;;1.40;1.30;;;23.20;55.70;;;;;;4883077;28;45767;-83
2023/08/01 12:16:44;;;;;;;1.48;1.25;;;23.20;55.70;;;;;;4886568;28;46008;-83
2023/08/01 12:19:10;;;;;;;2.85;1.30;;;23.20;55.80;;;;;;4875408;28;45510;-82
2023/08/01 12:21:35;;;;;;;1.98;1.55;;;23.20;55.70;;;;;;4880091;28;44742;-82
2023/08/01 12:24:02;;;;;;;2.20;1.30;;;23.20;55.70;;;;;;4866579;28;45231;-81
2023/08/01 12:26:27;;;;;;;1.77;1.52;;;23.20;55.70;;;;;;4896750;28;45314;-82
2023/08/01 12:28:53;;;;;;;2.40;1.30;;;23.20;55.70;;;;;;4865206;28;45426;-83
2023/08/01 12:31:19;;;;;;;1.85;1.50;;;23.20;55.70;;;;;;4874815;28;46160;-82
2023/08/01 12:33:45;;;;;;;1.50;1.33;;;23.30;55.80;;;;;;4878244;28;45269;-83
2023/08/01 12:36:11;;;;;;;2.08;1.60;;;23.30;55.80;;;;;;4880413;28;45593;-81
2023/08/01 12:38:37;;;;;;;1.58;1.40;;;23.30;55.80;;;;;;4866510;28;45278;-82
2023/08/01 12:41:02;;;;;;;3.55;1.08;;;23.20;55.70;;;;;;4864683;28;44827;-84
2023/08/01 12:43:28;;;;;;;2.22;1.52;;;23.30;55.80;;;;;;4856563;28;45759;-82
2023/08/01 12:45:55;;;;;;;1.63;1.27;;;23.30;56.40;;;;;;4883922;28;47184;-85
2023/08/01 12:48:21;;;;;;;1.60;1.30;;;23.30;55.80;;;;;;4895320;28;45341;-82
2023/08/01 12:50:48;;;;;;;1.33;1.00;;;23.20;55.70;;;;;;4881549;28;46065;-82
2023/08/01 12:53:13;;;;;;;2.45;1.42;;;23.20;55.70;;;;;;4885791;28;45336;-85
2023/08/01 12:55:39;;;;;;;2.30;1.25;;;23.20;55.70;;;;;;4887603;28;47218;-81
2023/08/01 12:58:05;;;;;;;2.90;1.00;;;23.30;55.80;;;;;;4884608;28;45359;-82
2023/08/01 13:00:30;;;;;;;1.48;1.10;;;23.30;55.80;;;;;;4877063;28;45534;-85
2023/08/01 13:02:56;;;;;;;1.80;1.13;;;23.30;55.80;;;;;;4875083;28;45189;-81
2023/08/01 13:05:22;;;;;;;1.52;1.33;;;23.30;55.80;;;;;;4881261;28;46282;-82
2023/08/01 13:07:49;;;;;;;1.45;1.20;;;23.20;55.70;;;;;;4886178;28;45252;-82
2023/08/01 13:10:15;;;;;;;2.25;1.20;;;23.30;55.80;;;;;;4864650;28;45237;-84
2023/08/01 13:12:40;;;;;;;1.40;1.20;;;23.30;55.80;;;;;;4869988;28;45538;-84
2023/08/01 13:15:06;;;;;;;1.40;1.10;;;23.30;55.80;;;;;;4869742;28;45485;-87
2023/08/01 13:17:32;;;;;;;1.48;1.13;;;23.30;55.80;;;;;;4878247;28;46337;-83
2023/08/01 13:19:57;;;;;;;2.05;1.20;;;23.30;55.80;;;;;;4887128;28;44830;-82
2023/08/01 13:22:23;;;;;;;1.38;0.88;;;23.30;55.80;;;;;;4879924;28;45539;-82
2023/08/01 13:24:48;;;;;;;1.30;1.00;;;23.30;55.80;;;;;;4870324;28;45412;-83
2023/08/01 13:27:14;;;;;;;1.10;0.95;;;23.30;55.80;;;;;;4884496;28;45439;-81
2023/08/01 13:29:40;;;;;;;1.05;0.95;;;23.30;55.80;;;;;;4867426;28;45567;-82
2023/08/01 13:32:06;;;;;;;1.60;1.00;;;23.30;55.80;;;;;;4886202;28;45326;-83
2023/08/01 13:34:32;;;;;;;0.93;0.90;;;23.30;55.80;;;;;;4883074;28;47157;-86
2023/08/01 13:36:57;;;;;;;1.20;0.95;;;23.30;55.80;;;;;;4881551;28;45604;-84
2023/08/01 13:39:23;;;;;;;1.27;1.00;;;23.30;55.80;;;;;;4897152;28;45299;-82
2023/08/01 13:41:48;;;;;;;1.13;0.93;;;23.30;55.80;;;;;;4864886;28;45136;-87
2023/08/01 13:44:14;;;;;;;1.52;1.27;;;23.30;55.80;;;;;;4882247;28;45938;-86
2023/08/01 13:46:39;;;;;;;1.52;1.10;;;23.30;55.80;;;;;;4881017;28;45240;-82
2023/08/01 13:49:05;;;;;;;1.27;1.00;;;23.30;55.80;;;;;;4884446;28;45476;-82
2023/08/01 13:51:33;;;;;;;1.63;1.00;;;23.30;55.80;;;;;;4883668;28;45361;-84
2023/08/01 13:53:59;;;;;;;1.33;0.95;;;23.30;55.80;;;;;;4862963;28;48415;-82
2023/08/01 13:56:25;;;;;;;0.88;0.80;;;23.30;55.80;;;;;;4874449;28;44749;-81
2023/08/01 13:58:50;;;;;;;2.90;0.80;;;23.30;55.80;;;;;;4883861;28;44853;-82
2023/08/01 14:01:18;;;;;;;1.20;0.95;;;23.30;55.80;;;;;;4868072;28;45439;-83
2023/08/01 14:03:43;;;;;;;0.95;0.80;;;23.30;55.80;;;;;;4895491;28;46835;-82
2023/08/01 14:06:12;;;;;;;1.10;0.82;;;23.30;55.80;;;;;;4886442;28;45215;-82
2023/08/01 14:08:38;;;;;;;1.20;0.90;;;23.30;55.90;;;;;;4875429;28;45678;-81
2023/08/01 14:11:05;;;;;;;0.93;0.65;;;23.30;55.80;;;;;;4885338;28;45301;-83
2023/08/01 14:13:33;;;;;;;1.02;0.70;;;23.30;55.80;;;;;;4867867;28;45505;-84
2023/08/01 14:15:59;;;;;;;1.20;0.93;;;23.30;55.80;;;;;;4866269;28;45041;-82
2023/08/01 14:18:25;;;;;;;0.70;0.70;;;23.30;55.90;;;;;;4880094;28;45197;-85
2023/08/01 14:20:50;;;;;;;0.98;0.85;;;23.30;55.80;;;;;;4877472;28;45217;-83
2023/08/01 14:23:16;;;;;;;1.48;0.80;;;23.30;55.90;;;;;;4885945;28;47201;-88
2023/08/01 14:25:42;;;;;;;1.23;0.90;;;23.30;55.80;;;;;;4882723;28;45760;-81
2023/08/01 14:28:07;;;;;;;1.40;0.93;;;23.30;55.80;;;;;;4889925;28;44831;-82
2023/08/01 14:30:33;;;;;;;1.02;0.70;;;23.30;55.80;;;;;;4862562;28;45143;-82
2023/08/01 14:33:02;;;;;;;1.17;1.02;;;23.30;55.90;;;;;;4874144;28;47924;-81
2023/08/01 14:35:28;;;;;;;1.20;0.73;;;23.30;55.80;;;;;;4853712;28;45163;-83
2023/08/01 14:37:55;;;;;;;1.20;0.80;;;23.30;55.90;;;;;;4890010;28;45157;-83
2023/08/01 14:40:21;;;;;;;0.52;0.43;;;23.30;55.80;;;;;;4868002;28;45489;-81
2023/08/01 14:42:47;;;;;;;1.40;1.00;;;23.30;55.90;;;;;;4867657;28;47506;-83
2023/08/01 14:45:12;;;;;;;0.90;0.70;;;23.30;55.80;;;;;;4884210;28;45637;-83
2023/08/01 14:47:38;;;;;;;1.00;0.70;;;23.30;55.90;;;;;;4882903;28;45286;-83
2023/08/01 14:50:04;;;;;;;0.90;0.52;;;23.30;55.80;;;;;;4880501;28;48552;-85
2023/08/01 14:52:30;;;;;;;0.95;0.80;;;23.30;55.90;;;;;;4880239;28;46717;-83
2023/08/01 14:54:56;;;;;;;1.05;0.70;;;23.30;55.90;;;;;;4880418;28;45192;-83
2023/08/01 14:57:22;;;;;;;0.95;0.82;;;23.30;55.80;;;;;;4879642;28;45044;-82
2023/08/01 14:59:47;;;;;;;1.98;0.80;;;23.30;55.90;;;;;;4898132;28;45447;-82
2023/08/01 15:02:13;;;;;;;0.80;0.75;;;23.30;55.90;;;;;;4862984;28;46219;-84
2023/08/01 15:04:38;;;;;;;0.57;0.57;;;23.30;55.90;;;;;;4881506;28;44759;-83
2023/08/01 15:07:04;;;;;;;1.00;0.88;;;23.30;55.90;;;;;;4868223;28;45403;-82
2023/08/01 15:09:30;;;;;;;1.67;0.80;;;23.30;55.90;;;;;;4887292;28;45493;-86
2023/08/01 15:11:55;;;;;;;1.27;0.77;;;23.40;56.00;;;;;;4884959;28;47263;-81
2023/08/01 15:14:22;;;;;;;0.63;0.55;;;23.40;55.90;;;;;;4895166;28;45391;-83
2023/08/01 15:16:48;;;;;;;0.70;0.60;;;23.30;55.90;;;;;;4890650;28;45385;-82
2023/08/01 15:19:14;;;;;;;0.63;0.63;;;23.30;55.90;;;;;;4871316;28;45282;-83
2023/08/01 15:21:39;;;;;;;1.00;0.73;;;23.30;55.90;;;;;;4886046;28;45171;-85
2023/08/01 15:24:05;;;;;;;1.52;0.70;;;23.40;55.90;;;;;;4884963;28;45525;-84
2023/08/01 15:26:31;;;;;;;1.20;0.75;;;23.30;55.90;;;;;;4902298;28;44856;-82
2023/08/01 15:28:56;;;;;;;0.80;0.60;;;23.30;55.90;;;;;;4890976;28;45154;-82
2023/08/01 15:31:22;;;;;;;0.77;0.60;;;23.40;56.00;;;;;;4884968;28;45163;-85
2023/08/01 15:33:47;;;;;;;0.80;0.50;;;23.30;55.90;;;;;;4868857;28;45494;-83
2023/08/01 15:36:13;;;;;;;0.88;0.70;;;23.30;55.90;;;;;;4880913;28;44960;-82
2023/08/01 15:38:39;;;;;;;0.50;0.43;;;23.30;55.90;;;;;;4884657;28;45472;-84
2023/08/01 15:41:08;;;;;;;1.00;0.70;;;23.40;55.90;;;;;;4882602;28;45388;-82
2023/08/01 15:43:35;;;;;;;0.65;0.65;;;23.30;55.90;;;;;;4893556;28;45218;-83